Weston, NE (68070)

7:19 AM CDT on May 25, 2017 (GMT -0500)
weston ne | | Change Station

Elev 1260 ft 41.19 °N, 96.74 °W | Updated 51 seconds ago

Clear
Clear
54.0 °F
Feels Like 54.0 °F
N
6.7
Wind Variable Wind from NNE
Gusts 6.7 mph

Today
High -- | Low -- °F
--% Chance of Precip.
Yesterday
High -- | Low -- °F
Precip. -- in
Pressure 29.63 in
Visibility 10.0 miles
Clouds Clear
Dew Point 22 °F
Humidity 28%
Rainfall 0.00 in
Snow Depth Not available.
6:00 AM 8:48 PM
Waning Crescent, 0% visible
METAR KAHQ 251155Z AUTO 16008KT 10SM CLR 11/08 A2963 RMK AO2 T01080076 10108 20076
Pressure 29.63 in
Visibility 10.0 miles
Clouds Clear
Dew Point 22 °F
Humidity 28%
Rainfall 0.00 in
Snow Depth Not available.
6:00 AM 8:48 PM
Waning Crescent, 0% visible
METAR KAHQ 251155Z AUTO 16008KT 10SM CLR 11/08 A2963 RMK AO2 T01080076 10108 20076

Get Severe Weather Alerts

Thanks for signing up!

Be on the lookout for a verification email in your inbox.

You'll start receiving the daily forecast at 6 AM.

×

10-Day Weather Forecast

Almanac

Astronomy

May. 25, 2017 Rise Set
Actual Time
Civil Twilight
Nautical Twilight
Astronomical Twilight
Moon
Length of Visible Light
Length of Day
Tomorrow will be .
, % of the Moon is Illuminated

Today's Extremes

State Highs State Lows

Community

WunderPhotos

Category 6

Welcome to Category 6. This is the collective home for Weather Underground's featured writeups by Dr. Jeff Masters (right), Bob Henson (left), Chris Burt, and other regular contributors.

Nearby

Air Quality

  Air Quality AQ Index Pollutant
Not available.

Snow Depth

Station Depth Elevation

Earthquake Activity

City Distance Mag. Time & Date
Minimum magnitude displayed is 2.5.

Coastal Water Temperatures

Place Temperature

Stations

Nearby Weather Stations

Station Location Temp. Windchill Dew Point Humidity Wind Precip. Elev Updated Type
                   

Watches & Warnings

There are currently no watches in effect.